Aérodrome :
LOGIN :

S'inscrire | Disclaimer

   EN    FR    IT 

 










Légende :    VFR   VFR Marginal   IFR   IFR Intensif   IFR Très Intensif
Visi : 
Plafond : 
>= 8 km
>= 3000ft
5 à 8 km
1000 à 3000 ft
1500m à 5 km
500 à 1000 ft
800 à 1500m
200 à 500 ft
< 800m
< 200 ft
Symboles :   Orages  Brouillard  Fortes neiges  Fortes précipitations  Vent > 20 kt
SIGMETs :   Divers  Orages  Givrage  Turbulence  Onde Orograph.  Cendres Volcan.







- Altitude de l'aérodrome : 90 ft
- Code IATA : NTE
- Voir les cartes d'approche


LFRS - Nantes

DERNIER METAR :
  • 150300Z AUTO 13010KT 9000 OVC014 02/M01 Q1019 TEMPO 3000 RA BKN006

METARs EXPIRÉS :
  • 150230Z AUTO 13008KT 8000 BKN012 OVC017 02/M01 Q1019 TEMPO 3000 RA BKN006
  • 150200Z AUTO 13011KT 7000 OVC013 02/M01 Q1020 TEMPO 3000 RA BKN006
  • 150130Z AUTO 13009KT 7000 OVC012 02/M00 Q1020 TEMPO 3000 RA BKN006
  • 150100Z AUTO 14010KT 7000 OVC015 02/M00 Q1021 BECMG BKN013
  • 150030Z AUTO 13009KT 7000 OVC016 02/M01 Q1021 BECMG BKN013

TAF TAF LFRS
Valide du 15 à 00h jusqu'au 16 à 06h UTC


142300Z 1500/1606 14010KT 8000 BKN020
BECMG 1500/1503 -RA BKN013
TEMPO 1503/1518 3000 RA BKN006
PROB30
TEMPO 1514/1516 2000 -DZRA BKN004
BECMG 1515/1517 22018G30KT
BECMG 1518/1520 NSW BKN020
BECMG 1520/1522 26010KT
PROB30
TEMPO 1600/1606 SHRA
ATIS : +33 2 40 05 12 74
Pas de NOTAMs connus pour ce terrain.



MET'MAP, la Météo Aéronautique d'un coup d'oeil ! - Copyright ORBIFLY Décembre 2007 - Disclaimer

ORBIFLY MET'MAP TEAM :

Programmation & Développement : Alexandra Zaïnal
Conception & Développement : Baudouin d'Aumeries
Co-Programmation & Développement : Marc-Olivier Méhu
Soutien technique & logistique : Manuel Goepfert

Contact : metmap@orbifly.com




SOURCES & CREDITS :

   NOAA